Time;durP1;ratioP1;P1;durP2;ratioP2;P2;SDS_P1;SDS_P2;PMS_P1;PMS_P2;Temp;Humidity;BMP_temperature;BMP_pressure;BME280_temperature;BME280_humidity;BME280_pressure;Samples;Min_cycle;Max_cycle;Signal;HPM_P1;HPM_P2
2021/08/28 00:01:51;;;;;;;15.50;5.38;;;14.60;98.60;;;;;;5033485;28;20046;-60
2021/08/28 00:04:17;;;;;;;15.63;4.93;;;14.70;98.60;;;;;;5031122;28;20037;-60
2021/08/28 00:06:44;;;;;;;13.73;4.90;;;14.70;98.60;;;;;;5032688;28;20044;-60
2021/08/28 00:09:22;;;;;;;12.63;4.88;;;14.70;98.50;;;;;;5033455;28;20067;-60
2021/08/28 00:11:50;;;;;;;16.77;5.85;;;14.70;98.70;;;;;;5033232;28;20034;-63
2021/08/28 00:14:22;;;;;;;13.77;5.35;;;14.70;98.60;;;;;;5033504;28;20049;-62
2021/08/28 00:16:48;;;;;;;16.00;5.47;;;14.80;98.80;;;;;;5032242;28;20044;-62
2021/08/28 00:19:14;;;;;;;12.15;5.30;;;14.70;98.80;;;;;;5033230;28;20037;-61
2021/08/28 00:21:55;;;;;;;12.98;5.65;;;14.80;99.00;;;;;;5032166;28;20091;-61
2021/08/28 00:24:21;;;;;;;17.08;5.07;;;14.70;98.80;;;;;;5033538;28;20033;-63
2021/08/28 00:26:48;;;;;;;13.27;4.85;;;14.70;98.80;;;;;;5032359;28;20033;-62
2021/08/28 00:29:14;;;;;;;10.57;5.15;;;14.70;98.90;;;;;;5032971;28;20124;-63
2021/08/28 00:31:49;;;;;;;15.68;5.75;;;14.70;98.80;;;;;;5032803;28;20033;-63
2021/08/28 00:34:15;;;;;;;13.52;5.53;;;14.70;98.70;;;;;;5013407;28;20112;-62
2021/08/28 00:36:41;;;;;;;11.25;4.75;;;14.70;98.70;;;;;;5025102;28;20148;-62
2021/08/28 00:39:12;;;;;;;12.18;5.15;;;14.60;98.80;;;;;;5018880;28;20041;-61
2021/08/28 00:41:43;;;;;;;16.48;5.32;;;14.60;98.80;;;;;;5030610;28;20079;-62
2021/08/28 00:44:08;;;;;;;12.30;4.90;;;14.60;98.80;;;;;;5014193;28;20505;-62
2021/08/28 00:46:34;;;;;;;13.68;5.32;;;14.70;98.90;;;;;;5022360;28;20041;-62
2021/08/28 00:49:03;;;;;;;14.90;5.05;;;14.70;99.00;;;;;;5031996;28;20045;-61
2021/08/28 00:51:38;;;;;;;19.08;6.13;;;14.70;99.10;;;;;;5033220;28;20524;-62
2021/08/28 00:54:09;;;;;;;14.48;5.63;;;14.70;99.20;;;;;;5032467;28;20037;-62
2021/08/28 00:56:35;;;;;;;16.65;5.30;;;14.70;99.10;;;;;;5031563;28;20049;-61
2021/08/28 00:59:03;;;;;;;15.52;5.55;;;14.80;99.20;;;;;;5032333;28;20152;-61
2021/08/28 01:01:35;;;;;;;14.20;5.40;;;14.80;99.30;;;;;;5025907;28;20042;-61
2021/08/28 01:04:14;;;;;;;15.77;5.25;;;14.80;99.20;;;;;;5024706;28;20116;-61
2021/08/28 01:06:48;;;;;;;16.77;6.05;;;14.80;99.20;;;;;;5024456;28;20041;-61
2021/08/28 01:09:25;;;;;;;12.45;5.32;;;14.80;99.30;;;;;;5021327;28;20414;-62
2021/08/28 01:12:01;;;;;;;14.57;5.07;;;14.80;99.30;;;;;;5030736;28;20042;-61
2021/08/28 01:14:32;;;;;;;17.45;6.03;;;14.80;99.30;;;;;;5028747;28;20081;-61
2021/08/28 01:17:04;;;;;;;11.48;5.10;;;14.90;99.40;;;;;;5012025;28;20069;-62
2021/08/28 01:19:39;;;;;;;12.50;5.50;;;14.90;99.40;;;;;;5025402;28;20044;-62
2021/08/28 01:22:16;;;;;;;10.63;4.88;;;14.90;99.50;;;;;;5019048;28;20409;-61
2021/08/28 01:24:44;;;;;;;13.57;5.25;;;14.90;99.50;;;;;;5012187;28;20107;-61
2021/08/28 01:27:40;;;;;;;12.98;5.15;;;14.90;99.40;;;;;;5009471;28;20115;-64
2021/08/28 01:30:10;;;;;;;12.65;5.35;;;14.90;99.60;;;;;;5021148;28;20042;-61
2021/08/28 01:32:38;;;;;;;15.20;5.15;;;15.00;99.50;;;;;;5030024;28;20041;-60
2021/08/28 01:35:05;;;;;;;11.23;5.28;;;15.00;99.60;;;;;;5031704;28;20073;-52
2021/08/28 01:37:30;;;;;;;16.95;5.20;;;15.00;99.60;;;;;;5017304;28;20042;-56
2021/08/28 01:40:09;;;;;;;14.98;5.20;;;15.00;99.60;;;;;;5025211;28;20125;-55
2021/08/28 01:42:39;;;;;;;16.20;5.55;;;15.00;99.60;;;;;;5024953;28;20440;-56
2021/08/28 01:45:13;;;;;;;13.50;5.72;;;15.00;99.60;;;;;;5031457;28;20041;-57
2021/08/28 01:47:41;;;;;;;14.80;5.55;;;15.10;99.70;;;;;;5017650;28;20061;-54
2021/08/28 01:50:09;;;;;;;14.90;5.63;;;15.10;99.70;;;;;;5011058;28;20100;-54
2021/08/28 01:52:39;;;;;;;14.93;5.72;;;15.10;99.80;;;;;;5005149;28;20118;-56
2021/08/28 01:55:05;;;;;;;12.30;5.88;;;15.10;99.80;;;;;;5030218;28;20029;-52
2021/08/28 01:57:35;;;;;;;13.10;5.82;;;15.10;99.90;;;;;;5030955;28;20048;-56
2021/08/28 02:00:02;;;;;;;12.18;5.20;;;15.20;99.90;;;;;;5025738;28;20042;-52
2021/08/28 02:02:31;;;;;;;14.63;6.00;;;15.20;99.90;;;;;;5028944;28;20096;-56
2021/08/28 02:05:01;;;;;;;13.50;5.95;;;15.20;99.80;;;;;;5029679;28;20064;-56
2021/08/28 02:07:57;;;;;;;14.18;5.63;;;15.20;99.90;;;;;;5018908;28;20303;-51
2021/08/28 02:10:43;;;;;;;16.98;6.05;;;15.20;99.90;;;;;;5029890;28;20469;-55
2021/08/28 02:13:31;;;;;;;13.40;6.60;;;15.20;99.90;;;;;;5029301;28;20041;-52
2021/08/28 02:16:14;;;;;;;14.82;5.80;;;15.20;99.90;;;;;;5030860;28;20596;-56
2021/08/28 02:18:50;;;;;;;16.88;5.97;;;15.20;99.90;;;;;;5012753;28;20049;-52
2021/08/28 02:21:22;;;;;;;15.95;6.18;;;15.20;99.90;;;;;;5008419;28;20057;-57
2021/08/28 02:23:59;;;;;;;13.55;5.95;;;15.30;99.90;;;;;;5000307;28;20494;-53
2021/08/28 02:26:38;;;;;;;14.35;6.25;;;15.20;99.90;;;;;;5028328;28;20424;-54
2021/08/28 02:29:19;;;;;;;12.77;6.15;;;15.30;99.90;;;;;;5017170;28;20413;-55
2021/08/28 02:31:58;;;;;;;13.45;6.22;;;15.30;99.90;;;;;;5030984;28;20045;-57
2021/08/28 02:34:26;;;;;;;13.55;5.88;;;15.30;99.90;;;;;;5031060;28;20041;-55
2021/08/28 02:36:58;;;;;;;11.48;5.68;;;15.30;99.90;;;;;;5029817;28;20041;-55
2021/08/28 02:39:25;;;;;;;15.43;5.50;;;15.30;99.90;;;;;;5030190;28;20056;-54
2021/08/28 02:42:00;;;;;;;9.82;5.85;;;15.30;99.90;;;;;;5030600;28;20040;-52
2021/08/28 02:44:32;;;;;;;12.38;6.30;;;15.30;99.90;;;;;;5030942;28;20489;-56
2021/08/28 02:47:08;;;;;;;14.38;5.80;;;15.30;99.90;;;;;;5029470;28;20510;-55
2021/08/28 02:49:40;;;;;;;15.23;6.15;;;15.30;99.90;;;;;;5024914;28;20046;-55
2021/08/28 02:52:11;;;;;;;15.67;5.60;;;15.30;99.90;;;;;;5030342;28;20034;-52
2021/08/28 02:54:39;;;;;;;11.27;5.60;;;15.60;99.90;;;;;;5024730;28;20033;-54
2021/08/28 02:57:06;;;;;;;13.90;5.93;;;15.30;99.90;;;;;;5029785;28;20041;-52
2021/08/28 02:59:34;;;;;;;15.95;6.00;;;15.20;99.90;;;;;;5030373;28;20038;-52
2021/08/28 03:02:07;;;;;;;12.15;5.70;;;15.20;99.90;;;;;;5024766;28;20050;-52
2021/08/28 03:04:39;;;;;;;9.88;5.95;;;15.30;99.90;;;;;;5029026;28;20084;-51
2021/08/28 03:07:13;;;;;;;13.93;5.65;;;15.20;99.90;;;;;;5029552;28;20045;-58
2021/08/28 03:09:49;;;;;;;11.07;6.15;;;15.20;99.90;;;;;;5028723;28;20037;-52
2021/08/28 03:12:16;;;;;;;13.85;5.82;;;15.20;99.90;;;;;;5030468;28;20052;-55
2021/08/28 03:14:42;;;;;;;11.85;5.10;;;15.30;99.90;;;;;;5012595;28;20037;-52
2021/08/28 03:17:17;;;;;;;13.48;5.53;;;15.20;99.90;;;;;;5029630;28;20046;-54
2021/08/28 03:19:44;;;;;;;10.32;5.07;;;15.20;99.90;;;;;;5018302;28;20048;-52
2021/08/28 03:22:15;;;;;;;13.27;5.35;;;15.30;99.90;;;;;;5030283;28;20048;-55
2021/08/28 03:24:46;;;;;;;10.32;5.32;;;15.20;99.90;;;;;;5016275;28;20073;-52
2021/08/28 03:27:16;;;;;;;12.75;5.05;;;15.20;99.90;;;;;;5028909;28;20041;-52
2021/08/28 03:29:47;;;;;;;13.63;5.32;;;15.10;99.90;;;;;;5030164;28;20041;-52
2021/08/28 03:32:16;;;;;;;13.95;5.55;;;15.20;99.90;;;;;;5028392;28;20108;-56
2021/08/28 03:34:42;;;;;;;10.68;5.55;;;15.20;99.90;;;;;;5030194;28;20043;-53
2021/08/28 03:37:12;;;;;;;12.48;5.40;;;15.20;99.90;;;;;;5029269;28;20038;-52
2021/08/28 03:39:40;;;;;;;15.13;5.40;;;15.20;99.90;;;;;;5029486;28;20049;-55
2021/08/28 03:42:07;;;;;;;15.50;5.97;;;15.10;99.90;;;;;;5030100;28;20042;-58
2021/08/28 03:44:40;;;;;;;11.13;5.35;;;15.20;99.90;;;;;;5030072;28;20056;-55
2021/08/28 03:47:07;;;;;;;11.75;6.05;;;15.20;99.90;;;;;;5016633;28;20124;-57
2021/08/28 03:49:33;;;;;;;10.38;5.25;;;15.20;99.90;;;;;;5030271;28;20041;-53
2021/08/28 03:51:59;;;;;;;21.80;6.10;;;15.20;99.90;;;;;;5031740;28;20033;-57
2021/08/28 03:54:28;;;;;;;14.55;5.70;;;15.20;99.90;;;;;;5033900;28;20099;-58
2021/08/28 03:57:02;;;;;;;12.95;5.45;;;15.20;99.90;;;;;;5033309;28;20037;-56
2021/08/28 03:59:34;;;;;;;12.40;5.43;;;15.20;99.90;;;;;;5033820;28;20044;-58
2021/08/28 04:02:02;;;;;;;16.10;5.85;;;15.20;99.90;;;;;;5032428;28;20060;-55
2021/08/28 04:04:28;;;;;;;16.90;5.97;;;15.20;99.90;;;;;;5023890;28;20033;-56
2021/08/28 04:06:54;;;;;;;12.38;6.05;;;15.20;99.90;;;;;;5028621;28;20068;-53
2021/08/28 04:09:22;;;;;;;13.45;5.57;;;15.20;99.90;;;;;;5033684;28;20038;-55
2021/08/28 04:11:47;;;;;;;11.98;5.50;;;15.20;99.90;;;;;;5033162;28;20045;-51
2021/08/28 04:14:13;;;;;;;11.40;5.90;;;15.20;99.90;;;;;;5033343;28;20083;-53
2021/08/28 04:16:41;;;;;;;16.20;6.32;;;15.20;99.90;;;;;;5032725;28;20040;-56
2021/08/28 04:19:07;;;;;;;14.15;5.97;;;15.20;99.90;;;;;;5029410;28;20077;-57
2021/08/28 04:21:33;;;;;;;12.82;5.68;;;15.20;99.90;;;;;;5023098;28;20077;-57
2021/08/28 04:23:58;;;;;;;15.40;6.32;;;15.20;99.90;;;;;;5032955;28;20053;-55
2021/08/28 04:26:24;;;;;;;18.52;6.32;;;15.50;99.90;;;;;;5032790;28;20053;-57
2021/08/28 04:28:56;;;;;;;15.48;6.47;;;15.50;99.90;;;;;;5028620;28;20033;-56
2021/08/28 04:31:23;;;;;;;14.68;5.70;;;15.40;99.90;;;;;;5032953;28;20050;-53
2021/08/28 04:33:50;;;;;;;14.00;6.90;;;15.30;99.90;;;;;;5031112;28;20038;-56
2021/08/28 04:36:19;;;;;;;15.93;6.78;;;15.30;99.90;;;;;;5032624;28;20042;-57
2021/08/28 04:38:47;;;;;;;15.85;6.43;;;15.20;99.90;;;;;;5032576;28;20045;-55
2021/08/28 04:41:16;;;;;;;12.18;6.35;;;15.30;99.90;;;;;;5055508;22;20807;-53
2021/08/28 04:43:42;;;;;;;13.73;6.90;;;15.20;99.90;;;;;;5033405;28;20037;-48
2021/08/28 04:46:08;;;;;;;12.85;6.82;;;15.30;99.90;;;;;;5010451;28;20045;-51
2021/08/28 04:48:35;;;;;;;15.70;6.85;;;15.20;99.90;;;;;;5017254;28;20037;-51
2021/08/28 04:51:01;;;;;;;20.17;6.95;;;15.20;99.90;;;;;;5017911;28;20069;-54
2021/08/28 04:53:27;;;;;;;13.68;7.00;;;15.30;99.90;;;;;;5033375;28;20053;-54
2021/08/28 04:55:53;;;;;;;15.15;7.18;;;15.30;99.90;;;;;;5031470;28;20120;-55
2021/08/28 04:58:18;;;;;;;16.75;6.72;;;15.20;99.90;;;;;;5021268;28;20052;-56
2021/08/28 05:00:44;;;;;;;12.55;6.53;;;15.30;99.90;;;;;;5028469;28;20444;-56
2021/08/28 05:03:09;;;;;;;11.05;6.13;;;15.30;99.90;;;;;;4996874;28;20041;-58
2021/08/28 05:05:35;;;;;;;12.70;6.38;;;15.30;99.90;;;;;;5026682;28;20053;-58
2021/08/28 05:08:04;;;;;;;15.25;6.78;;;15.40;99.90;;;;;;5012538;28;20053;-56
2021/08/28 05:10:30;;;;;;;12.23;6.70;;;15.40;99.90;;;;;;5014429;28;20038;-56
2021/08/28 05:12:55;;;;;;;11.57;6.93;;;15.40;99.90;;;;;;5032480;28;20467;-57
2021/08/28 05:15:21;;;;;;;14.13;6.55;;;15.40;99.90;;;;;;5033220;28;20481;-57
2021/08/28 05:17:46;;;;;;;13.65;6.65;;;15.40;99.90;;;;;;5032908;28;20037;-57
2021/08/28 05:20:12;;;;;;;17.55;7.50;;;15.40;99.90;;;;;;5032132;28;20404;-56
2021/08/28 05:22:38;;;;;;;17.38;7.32;;;15.40;99.90;;;;;;5014352;28;20113;-57
2021/08/28 05:25:05;;;;;;;14.80;7.45;;;15.30;99.90;;;;;;5032749;28;20052;-57
2021/08/28 05:27:30;;;;;;;11.93;6.85;;;15.30;99.90;;;;;;5031568;28;20120;-55
2021/08/28 05:29:56;;;;;;;19.10;7.53;;;15.30;99.90;;;;;;5023819;28;20471;-56
2021/08/28 05:32:22;;;;;;;14.70;7.18;;;15.30;99.90;;;;;;5014233;28;20367;-58
2021/08/28 05:34:48;;;;;;;16.88;8.00;;;15.30;99.90;;;;;;5024086;28;20061;-57
2021/08/28 05:37:13;;;;;;;13.15;7.28;;;15.30;99.90;;;;;;5025774;28;20047;-56
2021/08/28 05:39:44;;;;;;;18.35;7.18;;;15.30;99.90;;;;;;5000724;28;20124;-56
2021/08/28 05:42:10;;;;;;;19.38;8.07;;;15.40;99.90;;;;;;4992526;28;20052;-57
2021/08/28 05:44:35;;;;;;;15.55;8.18;;;15.40;99.90;;;;;;5015739;28;20033;-57
2021/08/28 05:47:01;;;;;;;17.63;7.85;;;15.40;99.90;;;;;;5003591;28;20474;-58
2021/08/28 05:49:27;;;;;;;19.70;7.15;;;15.40;99.90;;;;;;5027240;28;20355;-56
2021/08/28 05:51:52;;;;;;;17.58;7.45;;;15.50;99.90;;;;;;4974134;28;20470;-56
2021/08/28 05:54:18;;;;;;;14.60;7.40;;;15.40;99.90;;;;;;5026880;28;20034;-57
2021/08/28 05:56:43;;;;;;;18.67;7.18;;;15.40;99.90;;;;;;5027758;28;20138;-57
2021/08/28 05:59:09;;;;;;;16.52;7.57;;;15.40;99.90;;;;;;5031980;28;20048;-58
2021/08/28 06:01:35;;;;;;;12.48;6.72;;;15.40;99.90;;;;;;5011407;28;20046;-59
2021/08/28 06:04:01;;;;;;;14.07;6.05;;;15.50;99.90;;;;;;5026350;28;20041;-59
2021/08/28 06:06:27;;;;;;;10.52;6.00;;;15.50;99.90;;;;;;5029896;28;20041;-61
2021/08/28 06:08:52;;;;;;;17.10;6.60;;;15.60;99.90;;;;;;5012572;28;20041;-61
2021/08/28 06:11:18;;;;;;;14.48;6.93;;;15.70;99.90;;;;;;5024069;28;20397;-60
2021/08/28 06:13:43;;;;;;;14.63;6.78;;;15.70;99.90;;;;;;5006960;28;20038;-61
2021/08/28 06:16:09;;;;;;;17.67;6.80;;;15.70;99.90;;;;;;5027739;28;20038;-60
2021/08/28 06:18:34;;;;;;;17.17;7.22;;;15.70;99.90;;;;;;5030193;28;20052;-61
2021/08/28 06:21:02;;;;;;;13.15;6.55;;;15.80;99.90;;;;;;5031449;28;20043;-61
2021/08/28 06:23:28;;;;;;;15.55;6.50;;;15.80;99.90;;;;;;5030545;28;20103;-61
2021/08/28 06:25:54;;;;;;;15.77;7.15;;;15.70;99.90;;;;;;5031232;28;20041;-61
2021/08/28 06:28:19;;;;;;;17.70;6.38;;;15.70;99.90;;;;;;5030434;28;20045;-61
2021/08/28 06:30:45;;;;;;;18.83;6.95;;;15.80;99.90;;;;;;5016486;28;20041;-61
2021/08/28 06:33:10;;;;;;;18.23;6.68;;;15.70;99.90;;;;;;5019820;28;20125;-62
2021/08/28 06:35:36;;;;;;;15.38;6.85;;;15.70;99.90;;;;;;5028479;28;20040;-61
2021/08/28 06:38:01;;;;;;;10.00;6.50;;;15.70;99.90;;;;;;5030401;28;20489;-61
2021/08/28 06:40:27;;;;;;;24.48;6.95;;;15.80;99.90;;;;;;5030195;28;20412;-61
2021/08/28 06:42:52;;;;;;;20.23;7.07;;;15.90;99.90;;;;;;5030574;28;20037;-61
2021/08/28 06:45:18;;;;;;;15.05;7.03;;;15.90;99.90;;;;;;5030891;28;20582;-61
2021/08/28 06:47:43;;;;;;;12.60;6.63;;;15.90;99.90;;;;;;5029883;28;20181;-61
2021/08/28 06:50:09;;;;;;;19.20;6.65;;;16.00;99.90;;;;;;5030603;28;20148;-61
2021/08/28 06:52:35;;;;;;;15.88;7.68;;;15.90;99.90;;;;;;5017159;28;20505;-61
2021/08/28 06:55:01;;;;;;;13.52;6.38;;;15.90;99.90;;;;;;5030817;28;20041;-62
2021/08/28 06:57:26;;;;;;;15.05;7.28;;;16.00;99.90;;;;;;5030125;28;20511;-61
2021/08/28 06:59:52;;;;;;;16.33;6.80;;;16.00;99.90;;;;;;5030524;28;20559;-61
2021/08/28 07:02:18;;;;;;;17.27;7.72;;;16.00;99.90;;;;;;5030731;28;20057;-62
2021/08/28 07:04:43;;;;;;;18.02;7.03;;;16.00;99.90;;;;;;5030016;28;20052;-62
2021/08/28 07:07:09;;;;;;;16.02;6.60;;;16.10;99.90;;;;;;5019724;28;20034;-62
2021/08/28 07:09:34;;;;;;;13.77;6.00;;;16.00;99.90;;;;;;5010278;28;20099;-62
2021/08/28 07:12:00;;;;;;;20.90;7.20;;;16.20;99.90;;;;;;5019530;28;20100;-61
2021/08/28 07:14:26;;;;;;;14.05;5.97;;;16.20;99.90;;;;;;5030814;28;20624;-62
2021/08/28 07:16:51;;;;;;;13.77;6.43;;;16.20;99.90;;;;;;5011858;28;20061;-62
2021/08/28 07:19:17;;;;;;;16.15;6.20;;;16.30;99.90;;;;;;5030661;28;20041;-62
2021/08/28 07:21:42;;;;;;;11.35;6.07;;;16.30;99.90;;;;;;5029945;28;20063;-61
2021/08/28 07:24:08;;;;;;;16.15;6.22;;;16.50;99.80;;;;;;5030444;28;20049;-62
2021/08/28 07:26:34;;;;;;;12.10;6.03;;;16.60;99.20;;;;;;5030540;28;20049;-62
2021/08/28 07:28:59;;;;;;;13.70;6.03;;;16.60;98.80;;;;;;5034201;28;20048;-62
2021/08/28 07:31:25;;;;;;;13.48;5.68;;;16.50;99.10;;;;;;5033900;28;20041;-62
2021/08/28 07:33:50;;;;;;;11.93;6.13;;;16.50;99.30;;;;;;5034062;28;20120;-63
2021/08/28 07:36:16;;;;;;;14.02;5.90;;;16.60;98.70;;;;;;5033848;28;20064;-62
2021/08/28 07:38:41;;;;;;;15.02;5.75;;;16.50;98.60;;;;;;5031219;28;20521;-62
2021/08/28 07:41:07;;;;;;;15.50;5.88;;;16.60;98.30;;;;;;5033890;28;20037;-62
2021/08/28 07:43:32;;;;;;;16.00;6.50;;;16.70;97.60;;;;;;5033853;28;20034;-62
2021/08/28 07:45:59;;;;;;;11.23;5.70;;;16.60;97.60;;;;;;5033657;28;20037;-62
2021/08/28 07:48:24;;;;;;;14.60;5.57;;;16.60;98.10;;;;;;5033328;28;20048;-63
2021/08/28 07:50:50;;;;;;;10.35;5.70;;;16.60;97.90;;;;;;5033922;28;20046;-62
2021/08/28 07:53:15;;;;;;;15.32;6.00;;;16.70;97.20;;;;;;5033708;28;20489;-63
2021/08/28 07:55:41;;;;;;;10.27;5.32;;;16.60;97.60;;;;;;5031366;28;20045;-62
2021/08/28 07:58:07;;;;;;;11.10;5.18;;;16.70;96.70;;;;;;5032207;28;20506;-63
2021/08/28 08:00:32;;;;;;;13.35;5.22;;;16.80;96.10;;;;;;5033833;28;20044;-63
2021/08/28 08:02:58;;;;;;;10.57;5.32;;;16.90;95.50;;;;;;5031517;28;20112;-62
2021/08/28 08:05:24;;;;;;;9.13;4.90;;;16.80;96.00;;;;;;5032251;28;20515;-63
2021/08/28 08:07:49;;;;;;;13.82;5.05;;;16.90;95.80;;;;;;4998766;28;20052;-62
2021/08/28 08:10:15;;;;;;;7.80;4.10;;;17.00;95.50;;;;;;5033346;28;20050;-62
2021/08/28 08:12:41;;;;;;;9.38;5.25;;;17.20;95.00;;;;;;5033381;28;20452;-63
2021/08/28 08:15:07;;;;;;;7.32;4.53;;;17.30;95.20;;;;;;5031745;28;20390;-63
2021/08/28 08:17:32;;;;;;;11.52;5.43;;;17.50;94.50;;;;;;5033501;28;20087;-63
2021/08/28 08:19:58;;;;;;;15.15;5.35;;;17.50;93.20;;;;;;5033124;28;20045;-62
2021/08/28 08:22:24;;;;;;;10.23;4.22;;;17.60;94.00;;;;;;5033643;28;20046;-63
2021/08/28 08:24:50;;;;;;;10.90;5.05;;;17.70;92.70;;;;;;5033890;28;20041;-62
2021/08/28 08:27:16;;;;;;;9.30;4.50;;;17.70;93.10;;;;;;5033484;28;20045;-62
2021/08/28 08:29:42;;;;;;;8.88;4.28;;;17.70;93.00;;;;;;5015667;28;20052;-62
2021/08/28 08:32:10;;;;;;;9.35;4.32;;;17.70;93.30;;;;;;5034100;28;20464;-63
2021/08/28 08:34:36;;;;;;;9.25;4.07;;;17.80;92.60;;;;;;5025962;28;20069;-61
2021/08/28 08:37:04;;;;;;;8.90;4.10;;;17.90;91.40;;;;;;4994165;28;20123;-63
2021/08/28 08:39:29;;;;;;;8.40;4.20;;;17.90;92.00;;;;;;5021420;28;20436;-62
2021/08/28 08:41:57;;;;;;;7.70;4.15;;;17.90;91.20;;;;;;5032270;28;20049;-62
2021/08/28 08:44:23;;;;;;;7.03;3.58;;;18.00;91.50;;;;;;5033184;28;20417;-62
2021/08/28 08:46:50;;;;;;;9.73;3.95;;;18.10;91.00;;;;;;5033262;28;20041;-62
2021/08/28 08:49:17;;;;;;;7.82;3.65;;;18.10;91.40;;;;;;5032561;28;20494;-62
2021/08/28 08:51:45;;;;;;;10.45;4.07;;;18.10;91.00;;;;;;5032459;28;20084;-62
2021/08/28 08:54:10;;;;;;;12.60;4.15;;;18.30;90.10;;;;;;5019407;28;20055;-62
2021/08/28 08:56:36;;;;;;;8.52;3.72;;;18.20;90.30;;;;;;5032556;28;20041;-61
2021/08/28 08:59:02;;;;;;;9.15;4.00;;;18.10;89.40;;;;;;5033202;28;20056;-62
2021/08/28 09:01:28;;;;;;;7.60;3.70;;;18.00;89.60;;;;;;5018569;28;20125;-62
2021/08/28 09:03:56;;;;;;;7.35;3.38;;;18.00;88.10;;;;;;5033285;28;20072;-61
2021/08/28 09:06:22;;;;;;;10.10;4.00;;;17.90;90.10;;;;;;5014892;28;20091;-61
2021/08/28 09:08:48;;;;;;;8.60;3.40;;;18.00;87.50;;;;;;5029309;28;20033;-62
2021/08/28 09:11:20;;;;;;;8.55;3.47;;;17.90;87.60;;;;;;5033206;28;20447;-61
2021/08/28 09:13:47;;;;;;;7.28;3.63;;;17.90;89.10;;;;;;5032922;28;20048;-60
2021/08/28 09:16:28;;;;;;;8.93;4.03;;;17.70;90.20;;;;;;5015683;28;20116;-61
2021/08/28 09:18:54;;;;;;;10.80;3.63;;;17.60;90.60;;;;;;5019396;28;20045;-61
2021/08/28 09:21:22;;;;;;;9.77;3.50;;;17.80;90.10;;;;;;5030579;28;20045;-61
2021/08/28 09:23:49;;;;;;;8.80;3.67;;;17.90;90.90;;;;;;4998216;28;20393;-60
2021/08/28 09:26:26;;;;;;;6.28;3.28;;;18.00;90.60;;;;;;5014480;28;20127;-62
2021/08/28 09:28:56;;;;;;;8.30;3.92;;;18.20;88.90;;;;;;5031604;28;20041;-61
2021/08/28 09:31:52;;;;;;;8.45;3.60;;;18.10;90.10;;;;;;5032068;28;20033;-61
2021/08/28 09:34:29;;;;;;;7.97;3.55;;;18.10;88.50;;;;;;5013257;28;20052;-62
2021/08/28 09:37:04;;;;;;;6.90;3.08;;;18.20;85.60;;;;;;5032646;28;20124;-61
2021/08/28 09:39:44;;;;;;;8.30;3.05;;;18.40;85.10;;;;;;5001359;28;20049;-62
2021/08/28 09:42:17;;;;;;;4.97;2.38;;;18.50;85.00;;;;;;5030647;28;20710;-62
2021/08/28 09:44:44;;;;;;;6.05;2.85;;;18.60;81.10;;;;;;5031328;28;20115;-61
2021/08/28 09:47:30;;;;;;;6.25;2.75;;;18.70;80.90;;;;;;5027966;28;20049;-61
2021/08/28 09:49:56;;;;;;;7.35;3.00;;;18.70;80.90;;;;;;5012802;28;20136;-61
2021/08/28 09:52:23;;;;;;;6.97;2.80;;;18.60;81.70;;;;;;5031634;28;20136;-61
2021/08/28 09:54:53;;;;;;;6.78;3.85;;;18.60;82.20;;;;;;5031784;28;20045;-62
2021/08/28 09:57:27;;;;;;;6.05;2.85;;;18.40;83.10;;;;;;5031161;28;20043;-61
2021/08/28 10:00:00;;;;;;;3.72;2.50;;;18.60;80.50;;;;;;5029892;28;20076;-61
2021/08/28 10:02:26;;;;;;;5.90;2.63;;;18.40;80.80;;;;;;5027573;28;20116;-61
2021/08/28 10:04:53;;;;;;;4.93;2.55;;;18.60;80.20;;;;;;5031100;28;20105;-62
2021/08/28 10:07:22;;;;;;;4.63;2.60;;;18.80;79.60;;;;;;5013138;28;20037;-57
2021/08/28 10:09:52;;;;;;;6.80;2.90;;;18.70;79.80;;;;;;5031716;28;20493;-58
2021/08/28 10:12:22;;;;;;;6.72;2.70;;;18.60;79.70;;;;;;5011380;28;20045;-57
2021/08/28 10:14:51;;;;;;;6.75;2.80;;;18.70;81.00;;;;;;5031189;28;20447;-57
2021/08/28 10:17:20;;;;;;;5.47;2.97;;;18.60;82.00;;;;;;5012239;28;20187;-57
2021/08/28 10:19:50;;;;;;;5.88;3.10;;;18.50;81.90;;;;;;5032105;28;20110;-57
2021/08/28 10:22:21;;;;;;;9.75;2.70;;;18.40;82.90;;;;;;5029765;28;20049;-58
2021/08/28 10:24:51;;;;;;;8.15;2.83;;;18.30;83.60;;;;;;5032153;28;20033;-58
2021/08/28 10:27:17;;;;;;;7.10;2.78;;;18.40;83.80;;;;;;5030695;28;20520;-57
2021/08/28 10:29:45;;;;;;;6.15;2.97;;;18.40;84.40;;;;;;5030968;28;20112;-57
2021/08/28 10:32:11;;;;;;;5.43;2.47;;;18.40;85.00;;;;;;4997593;28;20532;-57
2021/08/28 10:34:38;;;;;;;8.30;3.42;;;18.30;85.10;;;;;;5031805;28;20041;-57
2021/08/28 10:37:03;;;;;;;6.75;2.75;;;18.40;83.00;;;;;;5011487;28;20045;-57
2021/08/28 10:39:33;;;;;;;8.27;3.60;;;18.40;82.20;;;;;;5030353;28;20481;-58
2021/08/28 10:41:59;;;;;;;7.03;2.42;;;18.40;82.00;;;;;;5029244;28;20045;-58
2021/08/28 10:44:25;;;;;;;8.50;2.92;;;18.20;83.60;;;;;;5012969;28;20041;-57
2021/08/28 10:46:51;;;;;;;6.95;2.60;;;18.20;84.20;;;;;;5031261;28;20048;-54
2021/08/28 10:49:20;;;;;;;5.85;2.40;;;18.20;85.50;;;;;;5029847;28;20069;-57
2021/08/28 10:51:45;;;;;;;4.13;2.53;;;18.40;85.70;;;;;;5030449;28;20493;-54
2021/08/28 10:54:13;;;;;;;5.82;2.95;;;18.60;84.80;;;;;;5030733;28;20095;-58
2021/08/28 10:56:54;;;;;;;7.25;2.53;;;18.60;84.70;;;;;;5016175;28;20405;-55
2021/08/28 10:59:30;;;;;;;8.63;2.80;;;18.70;82.50;;;;;;5030505;28;20056;-55
2021/08/28 11:02:13;;;;;;;4.95;2.47;;;18.80;81.70;;;;;;5002454;28;20041;-57
2021/08/28 11:04:44;;;;;;;5.72;2.83;;;18.80;81.90;;;;;;5033094;28;20497;-55
2021/08/28 11:07:20;;;;;;;6.00;2.30;;;18.80;83.30;;;;;;5030134;28;20037;-57
2021/08/28 11:10:18;;;;;;;6.28;2.30;;;18.70;82.80;;;;;;5034688;28;20037;-57
2021/08/28 11:12:58;;;;;;;6.90;2.20;;;18.60;82.40;;;;;;5029531;28;20507;-57
2021/08/28 11:15:32;;;;;;;5.15;2.67;;;18.50;82.90;;;;;;5026895;28;20033;-56
2021/08/28 11:18:01;;;;;;;5.43;2.55;;;18.40;83.20;;;;;;5019191;28;20045;-55
2021/08/28 11:20:34;;;;;;;5.80;2.30;;;18.20;84.20;;;;;;5029351;28;20037;-57
2021/08/28 11:23:05;;;;;;;7.72;2.40;;;18.20;84.10;;;;;;5001450;28;20049;-56
2021/08/28 11:25:33;;;;;;;5.22;2.33;;;18.30;83.10;;;;;;5034205;28;20045;-58
2021/08/28 11:28:04;;;;;;;8.82;2.30;;;18.20;84.00;;;;;;5031135;28;20052;-58
2021/08/28 11:30:45;;;;;;;5.00;2.20;;;18.10;84.10;;;;;;5026846;28;20465;-58
2021/08/28 11:33:12;;;;;;;6.43;2.40;;;18.00;85.30;;;;;;5030627;28;20060;-56
2021/08/28 11:35:45;;;;;;;6.78;2.15;;;18.00;85.70;;;;;;5031513;28;20061;-56
2021/08/28 11:38:13;;;;;;;6.47;2.40;;;18.00;86.10;;;;;;5025555;28;20051;-56
2021/08/28 11:40:39;;;;;;;8.77;2.83;;;18.30;86.00;;;;;;5032219;28;20041;-56
2021/08/28 11:43:07;;;;;;;7.88;2.50;;;18.50;86.10;;;;;;4998408;28;20048;-58
2021/08/28 11:45:40;;;;;;;5.97;1.92;;;18.60;85.50;;;;;;5021168;28;20444;-59
2021/08/28 11:48:11;;;;;;;4.97;2.13;;;18.90;84.10;;;;;;5031022;28;20034;-56
2021/08/28 11:50:38;;;;;;;4.10;2.17;;;18.90;84.30;;;;;;5029893;28;20084;-61
2021/08/28 11:53:04;;;;;;;6.22;2.20;;;19.00;83.00;;;;;;5029817;28;20083;-60
2021/08/28 11:55:34;;;;;;;8.32;2.05;;;18.90;82.40;;;;;;5031227;28;20560;-57
2021/08/28 11:58:02;;;;;;;4.60;2.17;;;18.80;83.00;;;;;;5032162;28;20030;-60
2021/08/28 12:00:30;;;;;;;4.15;1.98;;;18.60;82.90;;;;;;5025670;28;20033;-60
2021/08/28 12:03:00;;;;;;;7.15;2.50;;;18.50;82.90;;;;;;5031419;28;20041;-61
2021/08/28 12:05:28;;;;;;;7.30;2.00;;;18.40;83.40;;;;;;5022283;28;20477;-60
2021/08/28 12:07:54;;;;;;;10.75;2.28;;;18.20;84.20;;;;;;5030665;28;20045;-60
2021/08/28 12:10:21;;;;;;;7.93;2.50;;;18.00;85.30;;;;;;5024121;28;20095;-60
2021/08/28 12:13:03;;;;;;;6.68;2.35;;;17.90;86.10;;;;;;5025146;28;20120;-60
2021/08/28 12:15:29;;;;;;;;;;;17.90;87.50;;;;;;5012660;28;20124;-59
2021/08/28 12:17:56;;;;;;;5.32;1.95;;;17.80;87.00;;;;;;5029613;28;19997;-58
2021/08/28 12:20:30;;;;;;;5.45;2.17;;;17.90;86.50;;;;;;5028006;28;20057;-60
2021/08/28 12:22:58;;;;;;;4.85;1.75;;;17.90;86.80;;;;;;5028600;28;20037;-60
2021/08/28 12:25:24;;;;;;;7.53;1.85;;;17.80;87.50;;;;;;5023174;28;20049;-58
2021/08/28 12:27:51;;;;;;;4.45;2.10;;;17.90;86.00;;;;;;5029070;28;20061;-61
2021/08/28 12:30:18;;;;;;;5.85;2.03;;;17.90;85.60;;;;;;5027589;28;20044;-59
2021/08/28 12:32:43;;;;;;;6.75;2.28;;;18.00;85.10;;;;;;5028807;28;20041;-61
2021/08/28 12:35:11;;;;;;;6.32;2.00;;;18.00;86.50;;;;;;5033802;28;20489;-60
2021/08/28 12:37:37;;;;;;;5.10;1.95;;;18.00;86.90;;;;;;5012822;28;20029;-60
2021/08/28 12:40:09;;;;;;;9.63;2.08;;;18.10;87.10;;;;;;5027672;28;20048;-60
2021/08/28 12:42:35;;;;;;;6.68;2.00;;;18.10;86.70;;;;;;5032355;28;20041;-60
2021/08/28 12:45:05;;;;;;;7.30;2.42;;;18.20;86.50;;;;;;5031358;28;20397;-60
2021/08/28 12:47:36;;;;;;;5.13;1.98;;;18.20;86.80;;;;;;5028917;28;20037;-60
2021/08/28 12:50:03;;;;;;;7.63;2.53;;;18.30;86.60;;;;;;5027176;28;20237;-58